Time;durP1;ratioP1;P1;durP2;ratioP2;P2;SDS_P1;SDS_P2;PMS_P1;PMS_P2;Temp;Humidity;BMP_temperature;BMP_pressure;BME280_temperature;BME280_humidity;BME280_pressure;Samples;Min_cycle;Max_cycle;Signal;HPM_P1;HPM_P2
2023/03/02 00:09:53;;;;;;;4.80;3.45;;;19.40;59.30;;;;;;4725544;29;86980;-84
2023/03/02 00:12:18;;;;;;;5.40;3.03;;;19.40;59.60;;;;;;4741945;29;87583;-84
2023/03/02 00:14:44;;;;;;;6.65;3.42;;;19.40;59.50;;;;;;4742437;29;88125;-85
2023/03/02 00:17:10;;;;;;;5.35;3.10;;;19.30;59.50;;;;;;4741629;29;87872;-84
2023/03/02 00:19:36;;;;;;;5.50;3.20;;;19.30;59.30;;;;;;4742627;29;87420;-85
2023/03/02 00:22:02;;;;;;;5.22;2.95;;;19.30;59.40;;;;;;4743846;29;87023;-85
2023/03/02 00:24:28;;;;;;;5.65;3.47;;;19.30;59.40;;;;;;4743482;29;88180;-85
2023/03/02 00:26:54;;;;;;;5.15;3.08;;;19.30;59.40;;;;;;4742596;29;88272;-85
2023/03/02 00:29:20;;;;;;;5.05;3.03;;;19.30;59.50;;;;;;4742908;29;88630;-85
2023/03/02 00:31:45;;;;;;;5.47;2.97;;;19.20;59.40;;;;;;4742014;29;87503;-85
2023/03/02 00:44:17;;;;;;;4.72;3.50;;;19.20;59.50;;;;;;4740612;29;88269;-84
2023/03/02 00:46:43;;;;;;;5.95;3.25;;;19.20;59.40;;;;;;4741737;29;88356;-85
2023/03/02 00:49:09;;;;;;;5.25;3.33;;;19.10;59.50;;;;;;4741015;29;87411;-85
2023/03/02 00:51:35;;;;;;;4.97;2.90;;;19.10;60.20;;;;;;4741988;29;87840;-84
2023/03/02 01:00:44;;;;;;;4.03;2.97;;;19.10;59.40;;;;;;4741429;29;92306;-86
2023/03/02 01:03:10;;;;;;;4.25;2.80;;;19.10;59.50;;;;;;4740915;29;87336;-86
2023/03/02 01:05:44;;;;;;;5.20;3.05;;;19.00;59.40;;;;;;4741974;29;87505;-87
2023/03/02 01:08:10;;;;;;;6.47;3.28;;;19.00;59.50;;;;;;4742269;29;88706;-86
2023/03/02 01:10:37;;;;;;;4.90;3.28;;;19.00;59.50;;;;;;4741251;29;88248;-86
2023/03/02 01:13:04;;;;;;;5.18;3.40;;;19.00;59.40;;;;;;4741908;29;87537;-87
2023/03/02 01:15:31;;;;;;;5.22;3.33;;;19.00;59.40;;;;;;4742265;29;87571;-86
2023/03/02 01:17:58;;;;;;;5.32;3.20;;;19.00;59.40;;;;;;4742130;29;88149;-86
2023/03/02 01:23:45;;;;;;;4.65;2.90;;;19.00;59.40;;;;;;4739870;29;88488;-86
2023/03/02 01:26:11;;;;;;;6.40;3.42;;;18.90;59.30;;;;;;4741717;29;87142;-86
2023/03/02 01:28:37;;;;;;;4.97;2.60;;;18.90;59.40;;;;;;4741191;29;88665;-86
2023/03/02 01:31:03;;;;;;;3.08;2.58;;;18.90;59.30;;;;;;4740330;29;88268;-86
2023/03/02 01:33:41;;;;;;;4.57;3.25;;;18.90;59.40;;;;;;4741664;29;87299;-86
2023/03/02 01:36:07;;;;;;;4.70;3.28;;;18.90;59.20;;;;;;4740211;29;87319;-86
2023/03/02 01:38:33;;;;;;;5.18;3.42;;;18.90;59.40;;;;;;4752531;29;90667;-86
2023/03/02 01:40:58;;;;;;;4.20;2.88;;;18.80;59.30;;;;;;4738688;29;91070;-86
2023/03/02 01:43:24;;;;;;;4.35;2.90;;;18.80;59.20;;;;;;4740722;29;87150;-86
2023/03/02 01:45:57;;;;;;;4.32;2.50;;;18.80;59.30;;;;;;4742185;29;87488;-86
2023/03/02 01:48:43;;;;;;;4.80;3.30;;;18.80;59.20;;;;;;4739892;29;89257;-86
2023/03/02 01:51:14;;;;;;;3.65;2.70;;;18.80;59.30;;;;;;4741527;29;88878;-85
2023/03/02 01:53:45;;;;;;;4.32;2.85;;;18.80;59.20;;;;;;4740239;29;87120;-86
2023/03/02 01:56:21;;;;;;;6.03;3.20;;;18.80;59.20;;;;;;4741030;29;87998;-86
2023/03/02 01:58:51;;;;;;;4.85;3.00;;;18.80;59.20;;;;;;4734427;29;88173;-85
2023/03/02 02:01:17;;;;;;;4.45;2.95;;;18.80;59.20;;;;;;4739911;29;88857;-86
2023/03/02 02:03:45;;;;;;;4.13;2.97;;;18.70;59.20;;;;;;4739417;29;87267;-86
2023/03/02 02:06:31;;;;;;;6.47;2.95;;;18.70;59.10;;;;;;4743189;29;86871;-86
2023/03/02 02:09:00;;;;;;;4.50;3.33;;;18.70;59.00;;;;;;4747261;29;90030;-86
2023/03/02 02:11:25;;;;;;;3.37;2.90;;;18.70;59.20;;;;;;4754815;29;89971;-86
2023/03/02 02:13:59;;;;;;;4.93;2.78;;;18.70;59.20;;;;;;4740268;29;87968;-86
2023/03/02 02:16:30;;;;;;;5.90;3.38;;;18.70;59.10;;;;;;4741618;29;87285;-85
2023/03/02 02:18:57;;;;;;;4.15;2.70;;;18.70;59.10;;;;;;4741755;29;88200;-86
2023/03/02 02:21:24;;;;;;;3.90;2.72;;;18.60;59.00;;;;;;4739321;29;89992;-86
2023/03/02 02:24:37;;;;;;;5.07;2.67;;;18.60;59.00;;;;;;4704812;29;87041;-86
2023/03/02 02:27:03;;;;;;;4.75;2.72;;;18.60;58.90;;;;;;4706314;29;87501;-86
2023/03/02 02:29:32;;;;;;;3.65;2.90;;;18.60;59.00;;;;;;4691660;29;90678;-86
2023/03/02 02:32:11;;;;;;;4.25;3.05;;;18.60;58.80;;;;;;4704060;29;88266;-86
2023/03/02 02:34:39;;;;;;;;;;;18.60;59.00;;;;;;4705722;29;87651;-85
2023/03/02 02:37:21;;;;;;;2.90;2.50;;;18.60;58.80;;;;;;4706985;29;87493;-85
2023/03/02 02:39:48;;;;;;;3.20;2.60;;;18.60;58.80;;;;;;4704404;29;88695;-86
2023/03/02 02:42:33;;;;;;;5.20;2.97;;;18.50;58.90;;;;;;4705069;29;89438;-86
2023/03/02 02:45:03;;;;;;;3.70;2.70;;;18.50;58.80;;;;;;4704846;29;87086;-87
2023/03/02 02:47:29;;;;;;;5.65;3.00;;;18.50;58.90;;;;;;4706358;29;90266;-86
2023/03/02 02:49:56;;;;;;;3.58;2.60;;;18.60;59.00;;;;;;4705072;29;88622;-86
2023/03/02 02:52:25;;;;;;;3.92;2.70;;;18.50;58.90;;;;;;4705591;29;87553;-86
2023/03/02 02:54:54;;;;;;;3.30;2.55;;;18.50;58.90;;;;;;4707032;29;87561;-86
2023/03/02 02:57:28;;;;;;;4.10;3.07;;;18.50;58.70;;;;;;4682378;29;90848;-86
2023/03/02 02:59:59;;;;;;;4.15;2.72;;;18.50;58.90;;;;;;4704923;29;88053;-86
2023/03/02 03:02:28;;;;;;;3.38;2.60;;;18.50;58.70;;;;;;4740784;29;88643;-86
2023/03/02 03:05:02;;;;;;;3.67;2.53;;;18.50;58.80;;;;;;4747686;29;88335;-86
2023/03/02 03:07:30;;;;;;;3.25;2.50;;;18.50;58.70;;;;;;4743911;29;87114;-86
2023/03/02 03:10:11;;;;;;;4.47;2.78;;;18.40;58.80;;;;;;4744460;29;88243;-86
2023/03/02 03:12:38;;;;;;;4.43;2.72;;;18.40;58.80;;;;;;4743149;29;92042;-86
2023/03/02 03:15:05;;;;;;;3.55;2.63;;;18.40;58.80;;;;;;4743301;29;87440;-86
2023/03/02 03:17:31;;;;;;;4.10;2.83;;;18.40;58.60;;;;;;4743833;29;87586;-86
2023/03/02 03:20:05;;;;;;;3.58;2.67;;;18.40;58.60;;;;;;4743254;29;88843;-86
2023/03/02 03:22:33;;;;;;;3.53;2.50;;;18.40;58.70;;;;;;4742961;29;88306;-85
2023/03/02 03:24:59;;;;;;;3.67;2.53;;;18.40;58.70;;;;;;4744183;29;87224;-86
2023/03/02 03:27:25;;;;;;;3.95;3.05;;;18.40;58.70;;;;;;4743090;29;87719;-86
2023/03/02 03:29:50;;;;;;;3.28;2.28;;;18.40;58.60;;;;;;4741990;29;89499;-86
2023/03/02 03:35:41;;;;;;;3.42;2.35;;;18.30;58.50;;;;;;4743075;29;87579;-86
2023/03/02 03:38:07;;;;;;;4.20;2.90;;;18.30;58.60;;;;;;4742643;29;87815;-86
2023/03/02 03:40:33;;;;;;;3.42;2.42;;;18.30;58.60;;;;;;4742363;29;88517;-86
2023/03/02 03:43:02;;;;;;;2.80;2.50;;;18.30;58.60;;;;;;4743588;29;90764;-86
2023/03/02 03:45:28;;;;;;;3.40;2.20;;;18.30;58.60;;;;;;4742980;29;87983;-86
2023/03/02 03:47:54;;;;;;;3.78;2.78;;;18.30;58.40;;;;;;4742629;29;86859;-86
2023/03/02 03:53:58;;;;;;;3.70;2.50;;;18.20;58.20;;;;;;4743576;29;87290;-86
2023/03/02 03:56:25;;;;;;;3.90;2.95;;;18.20;58.20;;;;;;4748590;29;88471;-86
2023/03/02 03:58:52;;;;;;;2.88;2.38;;;18.20;58.20;;;;;;4739350;29;87387;-85
2023/03/02 04:01:18;;;;;;;4.45;3.05;;;18.20;58.30;;;;;;4751217;29;88670;-86
2023/03/02 04:03:44;;;;;;;4.07;2.50;;;18.20;58.30;;;;;;4742828;29;88290;-86
2023/03/02 04:06:17;;;;;;;5.20;3.05;;;18.20;58.40;;;;;;4756812;29;87319;-86
2023/03/02 04:08:43;;;;;;;4.65;2.80;;;18.20;58.40;;;;;;4741388;29;89623;-86
2023/03/02 04:11:09;;;;;;;4.10;2.50;;;18.20;58.30;;;;;;4743209;29;88348;-86
2023/03/02 04:13:35;;;;;;;3.33;2.70;;;18.10;58.40;;;;;;4742407;29;88395;-85
2023/03/02 04:16:00;;;;;;;3.28;2.53;;;18.20;58.30;;;;;;4742551;29;87419;-86
2023/03/02 04:18:26;;;;;;;3.13;2.22;;;18.10;58.30;;;;;;4742319;29;92119;-86
2023/03/02 04:20:51;;;;;;;3.95;2.60;;;18.10;58.20;;;;;;4741780;29;89249;-86
2023/03/02 04:23:17;;;;;;;4.07;2.72;;;18.10;58.30;;;;;;4740943;29;92155;-86
2023/03/02 04:25:43;;;;;;;3.25;2.40;;;18.10;58.20;;;;;;4742478;29;87107;-86
2023/03/02 04:28:08;;;;;;;3.92;2.42;;;18.10;58.00;;;;;;4742204;29;87474;-86
2023/03/02 04:30:34;;;;;;;3.40;2.70;;;18.10;58.10;;;;;;4741719;29;87539;-86
2023/03/02 04:33:00;;;;;;;3.20;2.40;;;18.10;58.70;;;;;;4743646;29;88699;-86
2023/03/02 04:35:25;;;;;;;3.40;2.55;;;18.10;58.10;;;;;;4742690;29;87060;-87
2023/03/02 04:37:51;;;;;;;4.18;2.72;;;18.00;58.10;;;;;;4742745;29;87260;-86
2023/03/02 04:40:17;;;;;;;4.15;3.00;;;18.10;58.00;;;;;;4748659;29;90626;-86
2023/03/02 04:42:43;;;;;;;2.67;2.28;;;18.00;57.50;;;;;;4741338;29;90039;-85
2023/03/02 04:45:09;;;;;;;3.50;2.30;;;18.10;58.10;;;;;;4754763;29;88575;-85
2023/03/02 04:47:47;;;;;;;5.70;3.00;;;18.10;57.80;;;;;;4738844;29;90142;-86
2023/03/02 04:50:14;;;;;;;3.22;2.67;;;18.20;57.70;;;;;;4748372;29;91451;-86
2023/03/02 04:52:43;;;;;;;4.35;2.53;;;18.40;57.90;;;;;;4756110;29;91775;-86
2023/03/02 04:55:11;;;;;;;4.18;2.70;;;18.50;57.40;;;;;;4732496;29;87286;-86
2023/03/02 04:57:36;;;;;;;8.02;2.65;;;18.70;57.40;;;;;;4756038;29;87571;-86
2023/03/02 05:00:03;;;;;;;6.65;2.53;;;18.90;57.10;;;;;;4741490;29;89090;-86
2023/03/02 05:02:29;;;;;;;5.88;2.85;;;19.00;57.00;;;;;;4741785;29;87787;-86
2023/03/02 05:04:55;;;;;;;3.95;2.65;;;19.10;56.80;;;;;;4741638;29;87239;-86
2023/03/02 05:07:20;;;;;;;3.80;2.55;;;19.20;56.70;;;;;;4741083;29;87513;-86
2023/03/02 05:14:22;;;;;;;2.15;1.95;;;19.50;56.00;;;;;;4716293;29;92978;-87
2023/03/02 05:16:48;;;;;;;2.70;2.00;;;19.60;55.70;;;;;;4707611;29;87123;-86
2023/03/02 05:19:13;;;;;;;3.92;2.40;;;19.60;55.80;;;;;;4718698;29;89042;-86
2023/03/02 05:21:39;;;;;;;2.45;2.05;;;19.60;55.70;;;;;;4712284;29;92117;-86
2023/03/02 05:24:05;;;;;;;3.03;1.98;;;19.60;55.80;;;;;;4705734;29;88017;-86
2023/03/02 05:26:31;;;;;;;2.78;2.30;;;19.50;55.80;;;;;;4712041;29;87258;-86
2023/03/02 06:02:54;;;;;;;3.63;2.28;;;19.30;56.00;;;;;;4708549;29;86897;-86
2023/03/02 06:05:21;;;;;;;3.25;2.25;;;19.20;56.00;;;;;;4709621;29;87594;-86
2023/03/02 06:07:47;;;;;;;2.70;2.20;;;19.20;56.20;;;;;;4714768;29;90456;-86
2023/03/02 06:10:13;;;;;;;3.35;2.33;;;19.10;56.20;;;;;;4721371;29;92367;-86
2023/03/02 06:12:40;;;;;;;2.08;1.65;;;19.20;56.40;;;;;;4708346;29;92956;-86
2023/03/02 06:20:12;;;;;;;3.97;2.15;;;19.20;56.40;;;;;;4718681;29;90599;-86
2023/03/02 06:22:45;;;;;;;3.25;2.47;;;19.40;56.10;;;;;;4758131;29;92361;-86
2023/03/02 06:25:21;;;;;;;2.83;2.20;;;19.40;56.10;;;;;;4743575;29;89331;-86
2023/03/02 06:27:50;;;;;;;3.50;1.70;;;19.40;55.90;;;;;;4750843;29;87639;-86
2023/03/02 06:30:17;;;;;;;4.28;2.10;;;19.40;55.90;;;;;;4742355;29;89328;-86
2023/03/02 06:32:43;;;;;;;2.47;1.75;;;19.40;55.80;;;;;;4743546;29;89461;-86
2023/03/02 06:35:09;;;;;;;3.55;1.70;;;19.40;55.90;;;;;;4744479;29;88413;-86
2023/03/02 06:54:24;;;;;;;3.47;2.13;;;19.10;55.80;;;;;;4743059;29;87464;-87
2023/03/02 06:56:50;;;;;;;2.25;1.80;;;19.20;55.80;;;;;;4743763;29;88594;-85
2023/03/02 06:59:15;;;;;;;5.72;1.95;;;19.20;55.60;;;;;;4743539;29;88298;-84
2023/03/02 07:01:41;;;;;;;3.53;1.98;;;19.20;55.70;;;;;;4743758;29;87351;-84
2023/03/02 07:04:19;;;;;;;4.50;2.53;;;19.20;55.30;;;;;;4742285;29;90130;-85
2023/03/02 07:06:47;;;;;;;5.90;2.17;;;19.40;55.20;;;;;;4743069;29;89558;-85
2023/03/02 07:09:15;;;;;;;3.55;2.15;;;19.50;55.20;;;;;;4742964;29;88525;-86
2023/03/02 07:11:41;;;;;;;8.10;2.72;;;19.60;55.00;;;;;;4744001;29;88956;-86
2023/03/02 07:14:07;;;;;;;4.85;2.50;;;19.70;54.70;;;;;;4744368;29;87602;-85
2023/03/02 07:16:33;;;;;;;10.20;3.55;;;19.80;54.30;;;;;;4743738;29;88204;-85
2023/03/02 07:18:59;;;;;;;12.48;4.25;;;19.90;54.20;;;;;;4742682;29;91193;-85
2023/03/02 07:21:24;;;;;;;13.38;4.55;;;19.90;53.80;;;;;;4742984;29;87356;-85
2023/03/02 07:23:50;;;;;;;8.88;3.58;;;19.90;53.30;;;;;;4742961;29;87340;-85
2023/03/02 07:26:16;;;;;;;7.68;3.05;;;20.00;53.70;;;;;;4743971;29;88126;-86
2023/03/02 07:28:43;;;;;;;10.50;3.28;;;20.00;54.20;;;;;;4743867;29;88298;-86
2023/03/02 07:31:09;;;;;;;11.02;3.40;;;20.00;54.10;;;;;;4742708;29;87868;-85
2023/03/02 07:33:36;;;;;;;7.35;3.35;;;20.10;54.20;;;;;;4758118;29;89168;-86
2023/03/02 07:36:02;;;;;;;8.18;3.58;;;20.00;54.20;;;;;;4747983;29;88671;-86
2023/03/02 07:38:28;;;;;;;9.43;3.85;;;20.00;54.30;;;;;;4743319;29;88394;-85
2023/03/02 07:54:21;;;;;;;5.75;3.05;;;19.90;54.20;;;;;;4741814;29;87012;-85
2023/03/02 07:56:47;;;;;;;8.57;2.60;;;19.90;54.40;;;;;;4749210;29;89393;-85
2023/03/02 07:59:13;;;;;;;6.22;2.97;;;19.90;54.50;;;;;;4742397;29;89406;-86
2023/03/02 08:01:39;;;;;;;7.53;3.28;;;19.80;54.50;;;;;;4755361;29;91403;-86
2023/03/02 08:10:49;;;;;;;10.13;3.20;;;19.80;54.70;;;;;;4741857;29;87685;-84
2023/03/02 08:13:14;;;;;;;9.93;3.47;;;19.80;54.70;;;;;;4741622;29;88371;-84
2023/03/02 08:15:40;;;;;;;6.82;3.08;;;19.80;55.40;;;;;;4743254;29;87634;-84
2023/03/02 08:18:06;;;;;;;7.95;3.67;;;19.80;54.80;;;;;;4741639;29;87655;-85
2023/03/02 08:20:31;;;;;;;6.32;3.10;;;19.80;54.80;;;;;;4740370;29;88630;-85
2023/03/02 08:22:57;;;;;;;9.55;3.67;;;19.80;54.80;;;;;;4752496;29;89678;-85
2023/03/02 08:25:23;;;;;;;8.32;3.42;;;19.80;54.90;;;;;;4739786;29;87955;-84
2023/03/02 08:27:48;;;;;;;7.45;3.05;;;19.80;55.10;;;;;;4740694;29;87018;-85
2023/03/02 08:30:14;;;;;;;6.38;3.33;;;19.80;55.10;;;;;;4741224;29;89493;-84
2023/03/02 08:32:40;;;;;;;5.18;3.05;;;19.80;55.10;;;;;;4740495;29;88358;-84
2023/03/02 08:35:06;;;;;;;8.70;3.20;;;19.80;55.20;;;;;;4742166;29;87441;-85
2023/03/02 08:37:33;;;;;;;7.97;3.20;;;19.80;55.10;;;;;;4741541;29;88589;-85
2023/03/02 08:39:58;;;;;;;10.00;4.13;;;19.80;55.10;;;;;;4742942;29;88658;-85
2023/03/02 08:42:24;;;;;;;7.88;3.25;;;19.80;55.00;;;;;;4743474;29;87843;-85
2023/03/02 08:44:56;;;;;;;9.18;3.45;;;19.80;55.20;;;;;;4749633;29;87079;-85
2023/03/02 08:47:21;;;;;;;6.65;2.78;;;19.80;55.20;;;;;;4742965;29;87061;-85
2023/03/02 08:49:48;;;;;;;8.60;3.35;;;19.80;55.20;;;;;;4741747;29;88986;-84
2023/03/02 08:52:14;;;;;;;7.78;3.22;;;19.80;55.30;;;;;;4742085;29;87766;-84
2023/03/02 08:54:39;;;;;;;7.57;2.80;;;19.80;55.30;;;;;;4756821;29;87514;-85
2023/03/02 09:10:33;;;;;;;8.45;3.53;;;19.80;55.00;;;;;;4726814;29;86347;-84
2023/03/02 09:12:58;;;;;;;6.35;2.75;;;19.70;55.20;;;;;;4742036;29;89085;-85
2023/03/02 09:15:24;;;;;;;8.75;3.42;;;19.70;55.20;;;;;;4739758;29;91635;-85
2023/03/02 09:17:50;;;;;;;6.82;3.22;;;19.70;55.40;;;;;;4741145;29;87901;-85
2023/03/02 09:20:16;;;;;;;7.25;3.47;;;19.80;55.20;;;;;;4723791;29;87534;-84
2023/03/02 09:22:47;;;;;;;7.07;2.85;;;19.80;55.30;;;;;;4741089;29;88955;-85
2023/03/02 09:25:13;;;;;;;8.13;3.67;;;19.70;55.30;;;;;;4741217;29;87680;-84
2023/03/02 09:27:40;;;;;;;6.60;3.38;;;19.70;55.40;;;;;;4741993;29;87479;-85
2023/03/02 09:30:07;;;;;;;8.27;3.65;;;19.70;55.40;;;;;;4745199;29;88085;-84
2023/03/02 09:42:44;;;;;;;8.93;3.60;;;19.70;55.40;;;;;;4740826;29;90582;-85
2023/03/02 09:45:25;;;;;;;5.13;2.88;;;19.70;55.60;;;;;;4754355;29;92902;-85
2023/03/02 09:48:02;;;;;;;7.13;3.03;;;19.70;55.70;;;;;;4740998;29;89541;-85
2023/03/02 09:54:10;;;;;;;7.15;3.15;;;19.60;55.70;;;;;;4741357;29;87715;-83
2023/03/02 09:56:41;;;;;;;8.45;3.13;;;19.70;55.70;;;;;;4741897;29;89210;-84
2023/03/02 09:59:19;;;;;;;8.20;3.67;;;19.70;55.50;;;;;;4740312;29;88529;-85
2023/03/02 10:08:35;;;;;;;4.60;2.90;;;19.60;55.80;;;;;;4741698;29;86995;-85
2023/03/02 10:11:19;;;;;;;5.78;2.80;;;19.60;55.90;;;;;;4746980;29;90069;-85
2023/03/02 10:14:23;;;;;;;5.43;2.95;;;19.60;56.10;;;;;;4747014;29;88412;-85
2023/03/02 10:17:00;;;;;;;5.90;3.35;;;19.60;56.10;;;;;;4747948;29;87838;-85
2023/03/02 10:19:41;;;;;;;5.78;2.72;;;19.50;56.00;;;;;;4747524;29;88579;-85
2023/03/02 10:22:24;;;;;;;5.10;3.17;;;19.50;56.00;;;;;;4747285;29;93794;-84
2023/03/02 10:25:07;;;;;;;8.73;3.25;;;19.50;56.00;;;;;;4748468;29;87157;-85
2023/03/02 10:27:42;;;;;;;5.35;3.35;;;19.50;56.20;;;;;;4747204;29;92388;-84
2023/03/02 10:30:31;;;;;;;7.15;2.83;;;19.50;56.20;;;;;;4739348;29;91568;-85
2023/03/02 10:36:36;;;;;;;5.55;3.05;;;19.50;56.20;;;;;;4747863;29;87585;-85
2023/03/02 10:39:05;;;;;;;7.28;3.10;;;19.50;56.20;;;;;;4747306;29;87687;-85
2023/03/02 10:41:39;;;;;;;5.45;2.83;;;19.50;56.30;;;;;;4737224;29;91778;-85
2023/03/02 10:44:24;;;;;;;5.20;3.03;;;19.50;56.30;;;;;;4742263;29;89834;-85
2023/03/02 11:13:36;;;;;;;4.97;2.67;;;19.50;56.10;;;;;;4741899;29;91524;-84
2023/03/02 11:16:17;;;;;;;5.78;2.80;;;19.50;56.20;;;;;;4742874;29;88017;-85
2023/03/02 11:19:18;;;;;;;5.68;2.80;;;19.50;57.20;;;;;;4744285;29;87621;-84
2023/03/02 11:21:54;;;;;;;6.90;2.80;;;19.50;57.30;;;;;;4678236;30;92428;-84
2023/03/02 11:24:34;;;;;;;5.70;2.83;;;19.50;56.80;;;;;;4678800;30;87031;-85
2023/03/02 11:27:01;;;;;;;4.75;2.72;;;19.60;57.10;;;;;;4679208;30;88226;-84
2023/03/02 11:36:28;;;;;;;8.02;2.60;;;19.80;56.80;;;;;;4678170;30;86946;-85
2023/03/02 11:38:54;;;;;;;6.63;2.60;;;19.90;57.30;;;;;;4678782;30;87430;-84
2023/03/02 11:41:28;;;;;;;5.40;3.13;;;19.90;56.50;;;;;;4678992;30;87343;-82
2023/03/02 11:43:55;;;;;;;5.53;2.70;;;19.80;56.10;;;;;;4678153;30;89523;-84
2023/03/02 11:46:25;;;;;;;7.97;3.70;;;19.80;55.90;;;;;;4678606;30;88772;-83
2023/03/02 11:48:55;;;;;;;7.22;3.70;;;19.70;55.00;;;;;;4679987;30;87714;-83
2023/03/02 11:51:28;;;;;;;6.20;3.22;;;19.70;55.90;;;;;;4679146;30;87845;-84
2023/03/02 11:54:35;;;;;;;9.07;3.10;;;19.70;56.40;;;;;;4655548;30;91890;-84
2023/03/02 11:57:02;;;;;;;6.32;3.00;;;19.70;55.70;;;;;;4678296;30;87790;-84
2023/03/02 11:59:29;;;;;;;6.55;3.05;;;19.90;55.90;;;;;;4735896;29;87412;-84
2023/03/02 12:01:56;;;;;;;14.48;3.65;;;19.80;55.80;;;;;;4748437;29;90916;-86
2023/03/02 12:17:55;;;;;;;14.30;3.58;;;19.50;56.00;;;;;;4741255;29;87343;-83
2023/03/02 12:20:23;;;;;;;8.38;3.30;;;19.50;56.30;;;;;;4742260;29;87816;-84
2023/03/02 12:22:49;;;;;;;5.40;3.30;;;19.60;55.70;;;;;;4741524;29;87769;-84
2023/03/02 12:25:17;;;;;;;7.53;2.85;;;19.70;55.60;;;;;;4741059;29;87404;-84
2023/03/02 12:27:43;;;;;;;9.27;3.33;;;19.70;55.50;;;;;;4743859;29;87351;-84
2023/03/02 12:30:15;;;;;;;6.28;3.30;;;19.70;55.30;;;;;;4743214;29;90910;-84
2023/03/02 12:32:44;;;;;;;7.82;3.08;;;19.70;55.30;;;;;;4743790;29;87401;-84
2023/03/02 12:42:24;;;;;;;5.68;2.95;;;19.80;55.00;;;;;;4741474;29;87675;-84
2023/03/02 12:45:08;;;;;;;6.18;3.05;;;19.80;55.10;;;;;;4740420;29;87523;-84
2023/03/02 12:47:34;;;;;;;5.10;3.17;;;19.80;55.30;;;;;;4742057;29;87253;-85
2023/03/02 12:50:05;;;;;;;4.10;2.40;;;19.70;55.30;;;;;;4741403;29;89443;-84
2023/03/02 12:52:33;;;;;;;5.03;2.72;;;19.70;55.40;;;;;;4742525;29;88251;-84
2023/03/02 12:55:19;;;;;;;4.97;2.70;;;19.70;55.30;;;;;;4743141;29;87707;-84
2023/03/02 12:57:51;;;;;;;5.03;3.00;;;19.70;55.30;;;;;;4742740;29;91198;-84
2023/03/02 13:00:21;;;;;;;7.70;3.45;;;19.70;55.30;;;;;;4743043;29;88629;-84
2023/03/02 13:02:49;;;;;;;6.35;3.05;;;19.70;55.50;;;;;;4741805;29;88287;-85
2023/03/02 13:05:24;;;;;;;6.88;3.13;;;19.70;55.60;;;;;;4741429;29;87819;-85
2023/03/02 13:07:55;;;;;;;9.45;3.28;;;19.70;55.10;;;;;;4739859;29;88147;-84
2023/03/02 13:10:25;;;;;;;5.45;2.67;;;19.80;55.10;;;;;;4740926;29;91459;-84
2023/03/02 13:12:50;;;;;;;;;;;19.80;55.00;;;;;;4758513;29;90375;-85
2023/03/02 13:15:16;;;;;;;6.72;2.85;;;19.80;54.90;;;;;;4743388;29;87214;-85
2023/03/02 13:38:15;;;;;;;6.78;2.40;;;19.80;54.70;;;;;;4715330;29;92879;-84
2023/03/02 13:40:47;;;;;;;7.95;3.33;;;19.80;54.30;;;;;;4741159;29;89963;-84
2023/03/02 13:43:23;;;;;;;4.50;2.83;;;19.80;54.60;;;;;;4741576;29;86952;-85
2023/03/02 13:46:12;;;;;;;3.30;2.33;;;19.80;54.90;;;;;;4741265;29;87689;-84
2023/03/02 13:58:43;;;;;;;6.45;2.67;;;20.00;54.40;;;;;;4669999;30;86362;-85
2023/03/02 14:01:11;;;;;;;5.82;2.50;;;20.10;53.90;;;;;;4675513;30;90480;-85
2023/03/02 14:03:37;;;;;;;6.18;2.72;;;20.00;54.00;;;;;;4677559;30;88410;-85
2023/03/02 14:06:04;;;;;;;5.03;2.70;;;20.00;54.00;;;;;;4676689;30;88248;-84
2023/03/02 14:08:31;;;;;;;6.70;2.80;;;20.00;54.10;;;;;;4676720;30;87300;-85
2023/03/02 14:10:59;;;;;;;4.95;2.85;;;19.90;54.20;;;;;;4676175;30;87667;-84
2023/03/02 14:13:34;;;;;;;3.50;2.47;;;19.90;54.20;;;;;;4665981;30;87646;-85
2023/03/02 14:16:00;;;;;;;3.47;2.50;;;19.90;54.40;;;;;;4672612;30;87470;-85
2023/03/02 14:18:44;;;;;;;3.17;2.35;;;19.90;54.30;;;;;;4677264;30;87361;-85
2023/03/02 14:21:18;;;;;;;4.65;2.72;;;19.90;54.20;;;;;;4679698;30;88061;-85
2023/03/02 14:23:47;;;;;;;6.90;2.50;;;19.90;54.40;;;;;;4662170;30;91557;-85
2023/03/02 14:26:37;;;;;;;5.20;2.53;;;19.90;54.30;;;;;;4695445;29;88054;-85
2023/03/02 14:29:26;;;;;;;3.28;2.00;;;19.90;54.20;;;;;;4739719;29;87535;-85
2023/03/02 14:32:05;;;;;;;4.70;2.35;;;20.00;54.20;;;;;;4746172;29;91766;-84
2023/03/02 14:34:31;;;;;;;3.45;2.47;;;20.00;54.20;;;;;;4712963;29;91837;-85
2023/03/02 14:37:03;;;;;;;4.05;2.47;;;20.00;53.80;;;;;;4742249;29;87175;-85
2023/03/02 14:39:45;;;;;;;4.15;2.40;;;20.00;54.00;;;;;;4741822;29;94733;-85
2023/03/02 14:42:14;;;;;;;3.97;2.53;;;20.00;54.00;;;;;;4741407;29;88427;-85
2023/03/02 14:44:40;;;;;;;4.05;2.42;;;20.00;54.00;;;;;;4742291;29;88342;-85
2023/03/02 14:47:07;;;;;;;3.53;2.47;;;20.00;53.90;;;;;;4726393;29;87052;-85
2023/03/02 14:49:33;;;;;;;4.63;2.65;;;20.00;53.80;;;;;;4742616;29;87381;-85
2023/03/02 14:52:34;;;;;;;4.68;2.70;;;20.00;54.00;;;;;;4714385;29;90621;-84
2023/03/02 14:55:06;;;;;;;3.42;2.35;;;19.90;54.00;;;;;;4670516;30;93515;-84
2023/03/02 14:57:35;;;;;;;3.55;2.30;;;19.90;54.10;;;;;;4670868;30;88423;-84
2023/03/02 15:00:01;;;;;;;3.47;2.47;;;19.90;54.30;;;;;;4671457;30;90865;-84
2023/03/02 15:02:27;;;;;;;4.25;2.55;;;19.90;54.30;;;;;;4685556;30;90584;-84
2023/03/02 15:04:55;;;;;;;4.18;2.63;;;19.90;54.30;;;;;;4684811;30;90318;-84
2023/03/02 15:07:21;;;;;;;5.68;2.25;;;19.80;54.30;;;;;;4667429;30;87202;-84
2023/03/02 15:09:47;;;;;;;5.47;2.25;;;19.90;54.20;;;;;;4666618;30;87681;-84
2023/03/02 15:12:13;;;;;;;4.05;2.35;;;19.90;54.40;;;;;;4660937;30;88544;-84
2023/03/02 15:14:39;;;;;;;4.47;2.80;;;19.90;54.40;;;;;;4669509;30;88267;-85
2023/03/02 15:17:09;;;;;;;3.97;2.63;;;19.80;54.30;;;;;;4670175;30;87405;-85
2023/03/02 15:23:14;;;;;;;5.43;2.60;;;19.90;54.40;;;;;;4669838;30;88306;-84
2023/03/02 15:25:41;;;;;;;3.80;2.55;;;20.00;54.20;;;;;;4687905;30;88812;-84
2023/03/02 15:28:08;;;;;;;4.05;2.58;;;20.00;53.90;;;;;;4697564;29;87789;-84
2023/03/02 15:30:34;;;;;;;3.33;2.08;;;20.10;54.10;;;;;;4778240;29;87387;-84
2023/03/02 15:32:59;;;;;;;4.57;2.33;;;20.10;54.00;;;;;;4757162;29;91817;-84
2023/03/02 15:38:49;;;;;;;3.13;2.10;;;20.10;53.90;;;;;;4757381;29;87336;-85
2023/03/02 15:41:15;;;;;;;4.68;2.25;;;20.10;53.60;;;;;;4758540;29;86880;-84
2023/03/02 15:43:41;;;;;;;3.58;2.30;;;20.20;53.10;;;;;;4741979;29;91483;-84
2023/03/02 15:46:08;;;;;;;4.90;2.28;;;20.30;53.40;;;;;;4759385;29;87730;-85
2023/03/02 15:48:35;;;;;;;4.30;2.55;;;20.40;53.10;;;;;;4743403;29;88505;-85
2023/03/02 15:51:04;;;;;;;4.13;2.60;;;20.40;52.80;;;;;;4749087;29;87925;-84
2023/03/02 15:53:31;;;;;;;3.33;2.10;;;20.40;52.60;;;;;;4748694;29;91458;-85
2023/03/02 15:55:57;;;;;;;3.80;2.70;;;20.40;52.70;;;;;;4742695;29;88136;-85
2023/03/02 15:58:23;;;;;;;3.30;2.20;;;20.40;52.90;;;;;;4743210;29;87501;-85
2023/03/02 16:00:49;;;;;;;3.97;2.40;;;20.40;52.90;;;;;;4740562;29;90801;-85
2023/03/02 16:03:15;;;;;;;3.72;2.03;;;20.40;53.10;;;;;;4741658;29;88443;-84
2023/03/02 16:05:41;;;;;;;3.28;2.15;;;20.40;53.10;;;;;;4743832;29;87287;-84
2023/03/02 16:08:17;;;;;;;3.17;2.35;;;20.50;53.00;;;;;;4734511;29;87068;-85
2023/03/02 16:14:04;;;;;;;6.22;2.75;;;20.50;52.80;;;;;;4740898;29;88375;-84
2023/03/02 16:16:30;;;;;;;8.65;3.20;;;20.50;52.20;;;;;;4742595;29;89409;-85
2023/03/02 16:18:58;;;;;;;5.82;4.05;;;20.30;50.90;;;;;;4742174;29;87663;-84
2023/03/02 16:21:25;;;;;;;6.03;3.58;;;20.30;50.00;;;;;;4756064;29;88893;-84
2023/03/02 16:23:52;;;;;;;7.32;3.92;;;20.20;49.80;;;;;;4741628;29;88034;-85
2023/03/02 16:26:19;;;;;;;6.40;3.80;;;20.10;48.40;;;;;;4742523;29;87774;-89
2023/03/02 16:28:45;;;;;;;9.80;4.88;;;20.00;49.00;;;;;;4741965;29;89139;-85
2023/03/02 16:31:17;;;;;;;9.05;5.28;;;20.00;47.20;;;;;;4742914;29;87391;-85
2023/03/02 16:33:44;;;;;;;16.02;6.07;;;20.10;47.90;;;;;;4741830;29;89495;-86
2023/03/02 16:51:14;;;;;;;13.02;5.63;;;20.80;49.70;;;;;;4716088;29;88688;-86
2023/03/02 16:53:39;;;;;;;9.98;4.05;;;20.80;50.30;;;;;;4709715;29;88914;-86
2023/03/02 16:56:06;;;;;;;17.52;5.47;;;20.70;50.80;;;;;;4709293;29;87891;-87
2023/03/02 16:58:32;;;;;;;12.60;5.70;;;20.70;50.10;;;;;;4706418;29;88094;-87
2023/03/02 17:00:58;;;;;;;10.25;5.43;;;20.50;48.80;;;;;;4705650;29;91037;-87
2023/03/02 17:03:25;;;;;;;12.93;5.40;;;20.40;50.40;;;;;;4706450;29;86903;-87
2023/03/02 17:05:51;;;;;;;11.98;5.30;;;20.30;51.20;;;;;;4700049;29;89447;-87
2023/03/02 17:08:17;;;;;;;11.05;5.00;;;20.20;51.70;;;;;;4703073;29;91235;-85
2023/03/02 17:10:43;;;;;;;11.98;4.82;;;20.30;51.20;;;;;;4705762;29;92774;-86
2023/03/02 17:13:10;;;;;;;9.25;4.40;;;20.30;50.80;;;;;;4706670;29;87733;-87
2023/03/02 17:15:36;;;;;;;10.40;5.00;;;20.20;51.00;;;;;;4706882;29;88090;-86
2023/03/02 17:18:02;;;;;;;12.05;5.38;;;20.20;51.30;;;;;;4706507;29;88417;-86
2023/03/02 17:20:37;;;;;;;14.15;4.00;;;20.30;51.30;;;;;;4726785;29;91529;-86